West Olive, Michigan
Current Conditions -  °F | °C
As of 12:53 PM on Friday 28 Nov 2014 (Local Time) from KBIV Reporting Station
Overcast Overcast  
Wind Chill: 14°   Ceiling: 8000
Heat Index: 25°   Visibility: 10mi
Dew Point: 16°   Wind: 12mph
Humidity: 69%   Direction: 180°S
Pressure: 30.19"   Gusts: NA
Location:  42.92°N, 86.15°W
Report Text: KBIV 281753Z AUTO 18010KT 10SM SCT065 OVC080 M04/M09 A3019 RMK AO2 SNB1659E22 SLP233 P0000 60000 T10391089 11033 21056 58028
Loading
Personal Weather Stations






























Interactive Weather Map New forecast layout! Learn more

10-Day Weather Forecast

Advertisements
Track Severe Weather on mobile